createdAt,value
2023-04-21T00:00:09.290Z,4.50
2023-04-21T00:02:39.562Z,4.60
2023-04-21T00:05:10.110Z,4.60
2023-04-21T00:07:38.618Z,5.20
2023-04-21T00:10:09.464Z,4.80
2023-04-21T00:12:38.040Z,5.30
2023-04-21T00:15:06.105Z,4.30
2023-04-21T00:17:34.248Z,3.90
2023-04-21T00:20:01.536Z,4.50
2023-04-21T00:22:29.093Z,4.40
2023-04-21T00:24:56.273Z,4.60
2023-04-21T00:27:23.487Z,4.10
2023-04-21T00:29:50.918Z,4.60
2023-04-21T00:32:18.045Z,4.50
2023-04-21T00:34:45.464Z,3.60
2023-04-21T00:37:12.604Z,4.10
2023-04-21T00:39:40.176Z,4.00
2023-04-21T00:42:07.523Z,5.20
2023-04-21T00:44:35.893Z,3.90
2023-04-21T00:47:04.461Z,3.50
2023-04-21T00:49:32.468Z,4.80
2023-04-21T00:52:00.107Z,4.80
2023-04-21T00:54:27.258Z,4.50
2023-04-21T00:56:54.816Z,3.80
2023-04-21T00:59:22.186Z,4.50
2023-04-21T01:01:49.533Z,4.70
2023-04-21T01:04:16.951Z,3.90
2023-04-21T01:06:44.452Z,4.60
2023-04-21T01:09:14.661Z,5.40
2023-04-21T01:14:09.103Z,4.40
2023-04-21T01:16:39.418Z,4.40
2023-04-21T01:19:07.357Z,4.10
2023-04-21T01:21:41.263Z,4.20
2023-04-21T01:24:08.456Z,4.10
2023-04-21T01:26:35.768Z,4.60
2023-04-21T01:29:03.127Z,4.40
2023-04-21T01:31:32.285Z,5.10
2023-04-21T01:34:03.878Z,4.50
2023-04-21T01:36:31.541Z,4.50
2023-04-21T01:38:58.787Z,4.70
2023-04-21T01:41:26.063Z,4.30
2023-04-21T01:43:54.833Z,5.20
2023-04-21T01:46:24.458Z,4.80
2023-04-21T01:48:51.695Z,5.20
2023-04-21T01:51:18.946Z,5.00
2023-04-21T01:53:46.295Z,5.50
2023-04-21T01:56:14.779Z,5.30
2023-04-21T01:58:41.960Z,4.60
2023-04-21T02:01:09.183Z,4.80
2023-04-21T02:03:36.918Z,4.40
2023-04-21T02:06:05.559Z,4.70
2023-04-21T02:08:33.393Z,5.70
2023-04-21T02:11:01.465Z,5.10
2023-04-21T02:13:29.235Z,4.40
2023-04-21T02:16:09.642Z,5.80
2023-04-21T02:18:41.040Z,5.10
2023-04-21T02:21:08.222Z,4.90
2023-04-21T02:23:35.557Z,4.60
2023-04-21T02:26:02.930Z,4.40
2023-04-21T02:28:33.324Z,4.70
2023-04-21T02:31:00.523Z,4.00
2023-04-21T02:33:27.996Z,3.90
2023-04-21T02:35:55.589Z,4.40
2023-04-21T02:38:24.692Z,4.50
2023-04-21T02:40:51.936Z,3.30
2023-04-21T02:43:19.918Z,4.10
2023-04-21T02:45:49.210Z,3.40
2023-04-21T02:48:22.397Z,3.70
2023-04-21T02:50:52.824Z,3.90
2023-04-21T02:53:20.614Z,3.90
2023-04-21T02:55:47.756Z,4.20
2023-04-21T02:58:16.118Z,4.90
2023-04-21T03:00:43.500Z,4.90
2023-04-21T03:03:11.061Z,4.50
2023-04-21T03:05:39.203Z,3.80
2023-04-21T03:08:06.360Z,4.10
2023-04-21T03:10:37.342Z,3.00
2023-04-21T03:13:04.438Z,3.00
2023-04-21T03:15:32.938Z,3.00
2023-04-21T03:18:02.457Z,3.90
2023-04-21T03:20:30.087Z,3.30
2023-04-21T03:22:59.191Z,2.70
2023-04-21T03:25:29.314Z,3.70
2023-04-21T03:30:25.963Z,3.30
2023-04-21T03:32:55.114Z,2.40
2023-04-21T03:35:22.556Z,2.90
2023-04-21T03:37:49.967Z,3.10
2023-04-21T03:40:17.120Z,3.10
2023-04-21T03:42:44.375Z,2.50
2023-04-21T03:45:13.733Z,2.90
2023-04-21T03:47:41.200Z,3.10
2023-04-21T03:50:09.112Z,2.90
2023-04-21T03:52:37.380Z,3.90
2023-04-21T03:55:08.634Z,3.30
2023-04-21T03:57:36.686Z,2.30
2023-04-21T04:00:05.171Z,2.20
2023-04-21T04:02:40.513Z,2.20
2023-04-21T04:05:08.373Z,2.40
2023-04-21T04:07:35.897Z,1.80
2023-04-21T04:10:03.907Z,1.60
2023-04-21T04:12:31.707Z,1.70
2023-04-21T04:14:58.845Z,1.50
2023-04-21T04:17:26.501Z,1.20
2023-04-21T04:19:53.839Z,1.20
2023-04-21T04:22:21.187Z,2.60
2023-04-21T04:24:48.288Z,1.90
2023-04-21T04:27:16.304Z,1.90
2023-04-21T04:29:46.735Z,1.50
2023-04-21T04:32:14.906Z,1.30
2023-04-21T04:34:42.069Z,1.50
2023-04-21T04:37:10.744Z,1.00
2023-04-21T04:39:38.686Z,1.60
2023-04-21T04:42:09.434Z,1.50
2023-04-21T04:44:36.651Z,1.90
2023-04-21T04:47:04.875Z,1.70
2023-04-21T04:49:33.458Z,2.00
2023-04-21T04:52:01.653Z,2.50
2023-04-21T04:54:30.829Z,1.90
2023-04-21T04:56:59.186Z,2.30
2023-04-21T04:59:27.952Z,1.90
2023-04-21T05:02:00.249Z,2.70
2023-04-21T05:04:29.193Z,2.20
2023-04-21T05:06:56.846Z,4.70
2023-04-21T05:09:25.628Z,3.20
2023-04-21T05:11:52.860Z,3.20
2023-04-21T05:14:20.663Z,3.30
2023-04-21T05:16:48.314Z,4.20
2023-04-21T05:19:18.499Z,4.10
2023-04-21T05:24:13.215Z,4.00
2023-04-21T05:26:44.898Z,4.30
2023-04-21T05:29:12.112Z,4.20
2023-04-21T05:31:39.880Z,4.50
2023-04-21T05:34:07.491Z,4.00
2023-04-21T05:36:36.490Z,4.60
2023-04-21T05:39:03.896Z,3.60
2023-04-21T05:41:31.294Z,4.30
2023-04-21T05:43:58.910Z,3.80
2023-04-21T05:46:26.318Z,4.10
2023-04-21T05:48:54.023Z,4.30
2023-04-21T05:51:22.952Z,4.70
2023-04-21T05:53:50.056Z,4.20
2023-04-21T05:56:18.336Z,4.50
2023-04-21T05:58:46.001Z,4.30
2023-04-21T06:01:14.937Z,4.70
2023-04-21T06:03:42.846Z,5.40
2023-04-21T06:06:11.245Z,4.90
2023-04-21T06:08:39.037Z,4.40
2023-04-21T06:11:06.569Z,5.40
2023-04-21T06:13:34.755Z,4.90
2023-04-21T06:16:02.616Z,5.20
2023-04-21T06:18:30.673Z,5.00
2023-04-21T06:20:58.165Z,4.80
2023-04-21T06:23:25.752Z,4.40
2023-04-21T06:26:00.452Z,4.60
2023-04-21T06:28:28.940Z,4.70
2023-04-21T06:30:56.452Z,4.00
2023-04-21T06:33:23.945Z,4.50
2023-04-21T06:35:51.258Z,4.50
2023-04-21T06:38:19.124Z,4.20
2023-04-21T06:40:46.791Z,4.40
2023-04-21T06:43:14.348Z,4.10
2023-04-21T06:45:42.623Z,5.20
2023-04-21T06:48:10.659Z,3.90
2023-04-21T06:50:38.360Z,4.40
2023-04-21T06:53:06.088Z,4.50
2023-04-21T06:55:34.712Z,4.60
2023-04-21T06:58:02.002Z,4.50
2023-04-21T07:00:29.844Z,4.50
2023-04-21T07:02:57.859Z,4.80
2023-04-21T07:05:25.594Z,4.50
2023-04-21T07:07:56.524Z,4.80
2023-04-21T07:10:26.685Z,4.80
2023-04-21T07:12:54.921Z,4.20
2023-04-21T07:15:26.916Z,5.10
2023-04-21T07:17:54.545Z,3.80
2023-04-21T07:20:23.099Z,4.10
2023-04-21T07:22:50.974Z,5.60
2023-04-21T07:25:19.297Z,3.80
2023-04-21T07:27:49.109Z,4.20
2023-04-21T07:30:16.823Z,4.00
2023-04-21T07:32:45.946Z,4.40
2023-04-21T07:35:13.782Z,5.00
2023-04-21T07:37:41.223Z,4.40
2023-04-21T07:40:11.562Z,3.90
2023-04-21T07:42:39.027Z,4.30
2023-04-21T07:45:07.096Z,3.60
2023-04-21T07:47:34.607Z,4.10
2023-04-21T07:50:02.718Z,3.80
2023-04-21T07:52:31.302Z,4.30
2023-04-21T07:54:58.650Z,4.30
2023-04-21T07:57:27.049Z,4.50
2023-04-21T07:59:55.818Z,4.30
2023-04-21T08:02:23.785Z,4.30
2023-04-21T08:04:53.859Z,4.30
2023-04-21T08:07:22.575Z,4.40
2023-04-21T08:09:50.468Z,3.90
2023-04-21T08:12:18.946Z,3.60
2023-04-21T08:14:46.791Z,3.90
2023-04-21T08:17:14.777Z,3.80
2023-04-21T08:19:43.365Z,2.90
2023-04-21T08:22:11.356Z,3.80
2023-04-21T08:24:39.326Z,4.30
2023-04-21T08:27:06.466Z,4.40
2023-04-21T08:29:36.500Z,3.60
2023-04-21T08:32:04.390Z,4.10
2023-04-21T08:34:32.245Z,3.90
2023-04-21T08:37:02.559Z,4.40
2023-04-21T08:39:30.596Z,3.70
2023-04-21T08:42:01.225Z,3.40
2023-04-21T08:44:31.549Z,3.90
2023-04-21T08:47:01.271Z,4.30
2023-04-21T08:49:29.448Z,4.30
2023-04-21T08:51:57.302Z,4.90
2023-04-21T08:54:28.045Z,4.80
2023-04-21T08:57:08.044Z,5.60
2023-04-21T08:59:44.453Z,3.80
2023-04-21T09:02:16.525Z,4.60
2023-04-21T09:04:45.859Z,4.40
2023-04-21T09:07:30.787Z,5.00
2023-04-21T09:09:59.779Z,5.40
2023-04-21T09:12:45.868Z,4.50
2023-04-21T09:15:13.351Z,5.20
2023-04-21T09:17:41.901Z,4.70
2023-04-21T09:20:17.759Z,4.50
2023-04-21T09:22:47.704Z,4.00
2023-04-21T09:25:22.006Z,4.60
2023-04-21T09:27:49.508Z,5.00
2023-04-21T09:30:20.242Z,4.80
2023-04-21T09:32:48.000Z,4.20
2023-04-21T09:35:15.761Z,4.30
2023-04-21T09:37:43.787Z,4.00
2023-04-21T09:40:15.064Z,3.70
2023-04-21T09:42:44.457Z,3.90
2023-04-21T09:45:28.908Z,3.60
2023-04-21T09:48:01.498Z,4.30
2023-04-21T09:50:44.764Z,4.00
2023-04-21T09:53:17.153Z,4.70
2023-04-21T09:55:46.078Z,4.10
2023-04-21T09:58:15.105Z,4.80
2023-04-21T10:00:42.632Z,4.70
2023-04-21T10:03:11.150Z,4.40
2023-04-21T10:05:42.160Z,3.90
2023-04-21T10:08:11.892Z,4.30
2023-04-21T10:10:39.810Z,3.50
2023-04-21T10:13:14.387Z,3.60
2023-04-21T10:15:42.054Z,4.10
2023-04-21T10:18:21.475Z,4.20
2023-04-21T10:20:55.382Z,4.20
2023-04-21T10:23:31.047Z,3.70
2023-04-21T10:26:06.280Z,4.30
2023-04-21T10:28:51.964Z,3.90
2023-04-21T10:31:27.235Z,4.60
2023-04-21T10:34:07.308Z,4.40
2023-04-21T10:36:53.733Z,4.30
2023-04-21T10:39:39.641Z,4.30
2023-04-21T10:42:13.258Z,4.70
2023-04-21T10:44:44.461Z,4.00
2023-04-21T10:47:13.120Z,3.60
2023-04-21T10:49:40.624Z,3.10
2023-04-21T10:52:10.432Z,3.40
2023-04-21T10:54:44.864Z,4.60
2023-04-21T10:57:14.350Z,4.20
2023-04-21T10:59:41.914Z,3.90
2023-04-21T11:02:16.289Z,3.10
2023-04-21T11:04:50.107Z,3.40
2023-04-21T11:07:25.258Z,2.30
2023-04-21T11:10:03.557Z,2.60
2023-04-21T11:12:39.006Z,2.80
2023-04-21T11:15:08.361Z,2.10
2023-04-21T11:20:07.029Z,2.50
2023-04-21T11:22:36.303Z,2.30
2023-04-21T11:25:05.387Z,2.50
2023-04-21T11:27:33.568Z,2.30
2023-04-21T11:30:02.970Z,2.70
2023-04-21T11:32:30.672Z,2.00
2023-04-21T11:34:57.995Z,2.00
2023-04-21T11:37:29.848Z,1.70
2023-04-21T11:39:59.357Z,2.30
2023-04-21T11:42:26.503Z,2.10
2023-04-21T11:44:55.397Z,2.30
2023-04-21T11:47:24.904Z,1.60
2023-04-21T11:49:57.060Z,1.40
2023-04-21T11:52:26.981Z,1.30
2023-04-21T11:54:56.755Z,1.40
2023-04-21T11:59:53.559Z,1.50
2023-04-21T12:02:22.521Z,1.50
2023-04-21T12:05:07.176Z,1.10
2023-04-21T12:07:41.347Z,1.20
2023-04-21T12:10:12.530Z,1.10
2023-04-21T12:12:42.948Z,1.60
2023-04-21T12:15:11.389Z,1.30
2023-04-21T12:17:39.396Z,1.50
2023-04-21T12:20:08.019Z,1.00
2023-04-21T12:22:35.678Z,1.50
2023-04-21T12:25:02.857Z,1.20
2023-04-21T12:27:30.699Z,1.50
2023-04-21T12:29:59.901Z,1.50
2023-04-21T12:32:27.315Z,1.00
2023-04-21T12:34:54.635Z,1.30
2023-04-21T12:37:22.660Z,1.30
2023-04-21T12:39:50.071Z,1.20
2023-04-21T12:42:17.601Z,1.30
2023-04-21T12:44:44.915Z,1.00
2023-04-21T12:47:12.191Z,1.10
2023-04-21T12:49:41.507Z,2.00
2023-04-21T12:52:08.650Z,4.30
2023-04-21T12:54:36.207Z,2.50
2023-04-21T12:57:08.421Z,1.70
2023-04-21T12:59:35.654Z,1.90
2023-04-21T13:02:03.060Z,1.80
2023-04-21T13:04:31.743Z,1.70
2023-04-21T13:07:01.273Z,1.70
2023-04-21T13:09:29.910Z,1.70
2023-04-21T13:11:57.822Z,2.00
2023-04-21T13:14:25.763Z,1.50
2023-04-21T13:16:53.501Z,1.60
2023-04-21T13:19:21.030Z,2.00
2023-04-21T13:21:48.264Z,1.80
2023-04-21T13:24:15.819Z,1.60
2023-04-21T13:26:43.155Z,1.40
2023-04-21T13:29:10.535Z,1.80
2023-04-21T13:31:38.038Z,1.90
2023-04-21T13:34:05.756Z,2.20
2023-04-21T13:36:33.015Z,1.90
2023-04-21T13:39:01.057Z,1.30
2023-04-21T13:41:28.463Z,1.90
2023-04-21T13:43:56.246Z,1.90
2023-04-21T13:46:25.531Z,1.50
2023-04-21T13:48:53.477Z,1.10
2023-04-21T13:51:20.914Z,1.50
2023-04-21T13:53:48.827Z,1.50
2023-04-21T13:56:17.296Z,2.30
2023-04-21T13:58:44.422Z,1.30
2023-04-21T14:01:13.802Z,1.20
2023-04-21T14:03:41.920Z,1.30
2023-04-21T14:06:09.235Z,1.30
2023-04-21T14:08:36.747Z,1.30
2023-04-21T14:11:06.297Z,1.30
2023-04-21T14:13:39.399Z,1.10
2023-04-21T14:16:07.156Z,1.40
2023-04-21T14:18:34.502Z,1.40
2023-04-21T14:21:02.075Z,1.50
2023-04-21T14:23:30.563Z,1.30
2023-04-21T14:25:59.157Z,1.10
2023-04-21T14:28:26.314Z,1.10
2023-04-21T14:30:53.975Z,1.30
2023-04-21T14:33:21.376Z,1.30
2023-04-21T14:35:48.771Z,1.50
2023-04-21T14:38:16.170Z,1.30
2023-04-21T14:40:45.394Z,1.70
2023-04-21T14:43:12.889Z,1.80
2023-04-21T14:45:40.667Z,1.30
2023-04-21T14:48:08.127Z,2.10
2023-04-21T14:50:35.610Z,1.20
2023-04-21T14:53:03.060Z,1.60
2023-04-21T14:55:30.713Z,1.90
2023-04-21T14:57:59.412Z,1.80
2023-04-21T15:00:27.462Z,1.80
2023-04-21T15:02:55.186Z,1.90
2023-04-21T15:05:23.396Z,1.70
2023-04-21T15:07:51.248Z,1.70
2023-04-21T15:10:18.853Z,1.60
2023-04-21T15:12:47.175Z,1.90
2023-04-21T15:15:14.500Z,1.50
2023-04-21T15:17:42.074Z,2.30
2023-04-21T15:20:10.416Z,1.90
2023-04-21T15:22:38.029Z,1.70
2023-04-21T15:25:06.301Z,1.70
2023-04-21T15:27:34.475Z,1.60
2023-04-21T15:30:03.919Z,1.90
2023-04-21T15:32:31.673Z,1.60
2023-04-21T15:35:01.178Z,1.60
2023-04-21T15:37:28.500Z,1.40
2023-04-21T15:39:56.480Z,1.70
2023-04-21T15:42:24.033Z,1.70
2023-04-21T15:44:53.337Z,1.80
2023-04-21T15:47:23.282Z,1.50
2023-04-21T15:49:50.668Z,1.30
2023-04-21T15:52:21.610Z,1.50
2023-04-21T15:54:50.173Z,1.70
2023-04-21T15:57:17.546Z,1.40
2023-04-21T15:59:45.301Z,1.70
2023-04-21T16:02:12.860Z,1.40
2023-04-21T16:04:41.345Z,1.60
2023-04-21T16:07:09.432Z,2.00
2023-04-21T16:09:40.126Z,2.40
2023-04-21T16:12:09.973Z,1.50
2023-04-21T16:14:53.472Z,1.40
2023-04-21T16:17:26.621Z,3.30
2023-04-21T16:19:54.197Z,7.30
2023-04-21T16:22:21.915Z,2.60
2023-04-21T16:24:49.889Z,1.50
2023-04-21T16:27:17.373Z,1.50
2023-04-21T16:29:45.008Z,1.80
2023-04-21T16:32:12.400Z,1.80
2023-04-21T16:34:40.977Z,1.90
2023-04-21T16:37:08.699Z,2.20
2023-04-21T16:39:37.166Z,2.30
2023-04-21T16:42:04.620Z,1.90
2023-04-21T16:44:32.129Z,2.20
2023-04-21T16:47:00.120Z,2.50
2023-04-21T16:49:29.786Z,1.40
2023-04-21T16:51:57.482Z,1.60
2023-04-21T16:54:26.744Z,1.80
2023-04-21T16:56:53.950Z,1.80
2023-04-21T16:59:23.731Z,2.30
2023-04-21T17:01:50.898Z,2.30
2023-04-21T17:04:18.568Z,2.30
2023-04-21T17:06:47.802Z,1.90
2023-04-21T17:09:16.649Z,1.60
2023-04-21T17:11:45.730Z,2.30
2023-04-21T17:14:13.803Z,2.20
2023-04-21T17:16:41.231Z,2.20
2023-04-21T17:19:08.952Z,1.60
2023-04-21T17:21:36.281Z,1.50
2023-04-21T17:24:03.769Z,1.80
2023-04-21T17:26:31.290Z,1.90
2023-04-21T17:28:59.149Z,2.30
2023-04-21T17:31:28.937Z,2.30
2023-04-21T17:33:57.040Z,2.30
2023-04-21T17:36:29.039Z,1.80
2023-04-21T17:38:57.909Z,2.20
2023-04-21T17:41:25.544Z,2.70
2023-04-21T17:43:54.597Z,2.40
2023-04-21T17:46:24.301Z,2.50
2023-04-21T17:48:52.582Z,2.10
2023-04-21T17:51:20.391Z,2.30
2023-04-21T17:53:49.749Z,2.40
2023-04-21T17:56:18.378Z,2.30
2023-04-21T17:58:46.990Z,1.70
2023-04-21T18:01:15.120Z,1.70
2023-04-21T18:03:42.998Z,2.10
2023-04-21T18:06:11.422Z,2.30
2023-04-21T18:08:39.046Z,2.30
2023-04-21T18:11:07.345Z,2.10
2023-04-21T18:13:35.957Z,1.60
2023-04-21T18:16:03.527Z,1.80
2023-04-21T18:18:31.026Z,1.70
2023-04-21T18:20:59.303Z,2.10
2023-04-21T18:23:26.650Z,2.70
2023-04-21T18:25:54.253Z,2.40
2023-04-21T18:28:21.747Z,1.90
2023-04-21T18:30:49.739Z,1.90
2023-04-21T18:33:18.666Z,2.20
2023-04-21T18:35:46.568Z,2.20
2023-04-21T18:38:14.393Z,2.50
2023-04-21T18:40:41.626Z,2.00
2023-04-21T18:43:10.501Z,1.70
2023-04-21T18:45:38.667Z,1.80
2023-04-21T18:48:06.321Z,2.40
2023-04-21T18:50:38.954Z,2.60
2023-04-21T18:53:07.095Z,2.30
2023-04-21T18:55:35.682Z,2.10
2023-04-21T18:58:03.340Z,2.00
2023-04-21T19:00:31.507Z,1.70
2023-04-21T19:03:01.019Z,1.70
2023-04-21T19:05:31.107Z,2.10
2023-04-21T19:08:00.043Z,2.30
2023-04-21T19:10:28.102Z,1.90
2023-04-21T19:12:56.389Z,2.10
2023-04-21T19:15:23.747Z,1.60
2023-04-21T19:17:51.903Z,1.70
2023-04-21T19:20:20.285Z,1.70
2023-04-21T19:22:47.487Z,2.20
2023-04-21T19:25:15.193Z,1.80
2023-04-21T19:27:43.467Z,1.30
2023-04-21T19:30:11.953Z,2.10
2023-04-21T19:32:41.075Z,1.90
2023-04-21T19:35:08.968Z,2.30
2023-04-21T19:37:36.484Z,2.30
2023-04-21T19:40:05.077Z,2.10
2023-04-21T19:42:32.536Z,1.60
2023-04-21T19:44:59.779Z,1.80
2023-04-21T19:47:27.026Z,2.60
2023-04-21T19:49:54.077Z,2.80
2023-04-21T19:52:21.215Z,2.10
2023-04-21T19:54:48.668Z,1.70
2023-04-21T19:57:16.126Z,1.90
2023-04-21T19:59:43.484Z,2.10
2023-04-21T20:02:10.696Z,2.20
2023-04-21T20:04:38.919Z,2.00
2023-04-21T20:07:06.672Z,2.40
2023-04-21T20:09:34.856Z,2.50
2023-04-21T20:12:02.116Z,2.40
2023-04-21T20:14:29.553Z,2.10
2023-04-21T20:16:57.430Z,2.40
2023-04-21T20:19:26.681Z,3.00
2023-04-21T20:21:53.879Z,2.60
2023-04-21T20:24:21.122Z,2.70
2023-04-21T20:26:49.200Z,2.10
2023-04-21T20:29:16.346Z,2.20
2023-04-21T20:31:45.241Z,2.20
2023-04-21T20:34:12.793Z,2.30
2023-04-21T20:36:40.267Z,2.40
2023-04-21T20:39:08.083Z,1.90
2023-04-21T20:41:35.210Z,2.20
2023-04-21T20:44:03.542Z,1.90
2023-04-21T20:46:31.894Z,2.40
2023-04-21T20:48:59.289Z,2.70
2023-04-21T20:51:27.137Z,2.40
2023-04-21T20:53:54.327Z,1.80
2023-04-21T20:56:21.552Z,1.70
2023-04-21T20:58:48.797Z,2.00
2023-04-21T21:01:16.302Z,2.50
2023-04-21T21:03:45.627Z,2.40
2023-04-21T21:06:14.136Z,2.50
2023-04-21T21:08:41.619Z,2.20
2023-04-21T21:11:08.849Z,2.10
2023-04-21T21:13:36.195Z,2.10
2023-04-21T21:16:03.662Z,2.20
2023-04-21T21:18:34.180Z,2.20
2023-04-21T21:21:01.536Z,2.30
2023-04-21T21:23:29.115Z,2.10
2023-04-21T21:25:58.095Z,1.90
2023-04-21T21:28:25.243Z,1.60
2023-04-21T21:30:52.283Z,2.40
2023-04-21T21:33:19.849Z,2.40
2023-04-21T21:35:47.123Z,2.90
2023-04-21T21:38:14.973Z,2.40
2023-04-21T21:40:42.122Z,2.20
2023-04-21T21:43:10.492Z,2.00
2023-04-21T21:45:37.749Z,2.10
2023-04-21T21:48:04.909Z,2.50
2023-04-21T21:50:32.452Z,3.10
2023-04-21T21:53:00.133Z,3.10
2023-04-21T21:55:27.265Z,2.30
2023-04-21T21:57:54.312Z,2.40
2023-04-21T22:00:21.393Z,2.10
2023-04-21T22:02:48.611Z,2.30
2023-04-21T22:05:15.859Z,2.60
2023-04-21T22:07:43.109Z,2.70
2023-04-21T22:10:11.285Z,2.00
2023-04-21T22:12:38.446Z,2.10
2023-04-21T22:15:06.301Z,2.30
2023-04-21T22:17:37.551Z,2.50
2023-04-21T22:20:06.989Z,2.70
2023-04-21T22:22:35.239Z,2.00
2023-04-21T22:25:02.582Z,2.60
2023-04-21T22:27:32.802Z,2.30
2023-04-21T22:32:31.833Z,2.60
2023-04-21T22:34:59.472Z,3.20
2023-04-21T22:37:27.240Z,2.50
2023-04-21T22:39:56.540Z,3.10
2023-04-21T22:42:23.799Z,3.10
2023-04-21T22:44:51.149Z,2.90
2023-04-21T22:47:18.334Z,2.90
2023-04-21T22:49:45.671Z,3.50
2023-04-21T22:52:12.809Z,2.80
2023-04-21T22:54:40.871Z,3.30
2023-04-21T22:57:08.455Z,3.10
2023-04-21T22:59:35.926Z,3.50
2023-04-21T23:02:04.908Z,3.90
2023-04-21T23:04:32.337Z,3.90
2023-04-21T23:06:59.500Z,4.00
2023-04-21T23:09:27.247Z,3.70
2023-04-21T23:11:54.408Z,3.80
2023-04-21T23:14:21.673Z,3.60
2023-04-21T23:16:48.767Z,4.70
2023-04-21T23:19:16.050Z,4.90
2023-04-21T23:21:43.235Z,3.90
2023-04-21T23:24:10.971Z,4.40
2023-04-21T23:26:38.431Z,4.20
2023-04-21T23:29:05.673Z,4.50
2023-04-21T23:31:34.147Z,4.80
2023-04-21T23:34:01.509Z,5.10
2023-04-21T23:36:28.758Z,5.40
2023-04-21T23:38:56.037Z,4.90
2023-04-21T23:41:23.121Z,4.90
2023-04-21T23:43:50.285Z,5.00
2023-04-21T23:46:17.564Z,5.80
2023-04-21T23:48:44.927Z,5.70
2023-04-21T23:51:12.132Z,5.30
2023-04-21T23:53:39.433Z,5.20
2023-04-21T23:56:07.113Z,5.40
2023-04-21T23:58:34.128Z,4.80
